Аэропорт: Платов. Ростов-на-Дону

ICAO: URRP

METAR:
2020-06-01 03:00:00
URRP 010300Z 11003MPS 9999 FEW/// 15/12 Q1012 R23/CLRD70 TEMPO 0800 FG SCT002 RMK QFE751/1001
METAR:
2020-06-01 01:55:00
TAF URRP 010155Z 0103/0203 20003G10MPS 9999 SCT020CB TX24/0112Z TN12/0202Z TEMPO 0103/0106 6000 SCT016 SCT020CB PROB40 TEMPO 0103/0106 0300 FG SCT002 SCT020CB TEMPO 0112/0118 15003G10MPS 6000 -SHRA SCT016 BKN020CB PROB40 TEMPO 0112/0118 -TSRA